Time;durP1;ratioP1;P1;durP2;ratioP2;P2;SDS_P1;SDS_P2;PMS_P1;PMS_P2;Temp;Humidity;BMP_temperature;BMP_pressure;BME280_temperature;BME280_humidity;BME280_pressure;Samples;Min_cycle;Max_cycle;Signal;HPM_P1;HPM_P2
2022/05/19 00:02:01;;;;;;;21.75;13.68;;;14.20;99.90;;;;;;5137899;27;20382;-76
2022/05/19 00:04:28;;;;;;;20.65;14.40;;;14.20;99.90;;;;;;5139760;27;20046;-76
2022/05/19 00:06:54;;;;;;;18.73;16.40;;;14.20;99.90;;;;;;5136619;27;20046;-76
2022/05/19 00:09:20;;;;;;;26.67;16.17;;;14.30;99.90;;;;;;5157844;27;20466;-76
2022/05/19 00:11:48;;;;;;;19.98;15.60;;;14.30;99.90;;;;;;5156199;27;20043;-76
2022/05/19 00:14:15;;;;;;;20.92;15.30;;;14.30;99.90;;;;;;5138297;27;20043;-76
2022/05/19 00:16:47;;;;;;;29.05;17.27;;;14.50;99.90;;;;;;5128587;27;20041;-76
2022/05/19 00:19:15;;;;;;;23.75;15.88;;;14.40;99.90;;;;;;5118479;27;20436;-76
2022/05/19 00:21:41;;;;;;;22.73;15.50;;;14.50;99.90;;;;;;5118170;27;20087;-76
2022/05/19 00:24:08;;;;;;;17.88;13.25;;;14.40;99.90;;;;;;5118415;27;20046;-76
2022/05/19 00:26:34;;;;;;;19.95;12.45;;;14.50;99.90;;;;;;5107766;27;20043;-76
2022/05/19 00:28:59;;;;;;;16.98;11.23;;;14.40;99.90;;;;;;5137017;27;20097;-76
2022/05/19 00:31:26;;;;;;;14.45;11.23;;;14.40;99.90;;;;;;5155503;27;20041;-76
2022/05/19 00:33:52;;;;;;;14.38;11.30;;;14.30;99.90;;;;;;5137464;27;20493;-76
2022/05/19 00:36:20;;;;;;;18.85;13.68;;;14.20;99.90;;;;;;5134441;27;20043;-76
2022/05/19 00:38:46;;;;;;;17.88;13.23;;;14.20;99.90;;;;;;5118061;27;20571;-76
2022/05/19 00:41:14;;;;;;;19.98;15.38;;;14.30;99.90;;;;;;5136503;27;20047;-76
2022/05/19 00:43:46;;;;;;;23.05;16.10;;;14.40;99.90;;;;;;5117281;27;20055;-76
2022/05/19 00:46:22;;;;;;;25.70;16.08;;;14.40;99.90;;;;;;5146036;27;20113;-76
2022/05/19 00:48:51;;;;;;;20.27;17.02;;;14.40;99.90;;;;;;5117611;27;20047;-76
2022/05/19 00:51:18;;;;;;;20.95;15.70;;;14.50;99.90;;;;;;5100788;27;20391;-76
2022/05/19 00:53:56;;;;;;;28.23;18.23;;;14.50;99.90;;;;;;5118066;27;20058;-76
2022/05/19 00:56:35;;;;;;;27.98;18.25;;;14.60;99.90;;;;;;5099333;27;20062;-76
2022/05/19 00:59:14;;;;;;;16.08;12.77;;;14.60;99.90;;;;;;5135231;27;20058;-76
2022/05/19 01:01:42;;;;;;;17.25;14.63;;;14.50;99.90;;;;;;5136007;27;20513;-76
2022/05/19 01:04:14;;;;;;;20.42;12.95;;;14.50;99.90;;;;;;5116742;27;20049;-76
2022/05/19 01:06:43;;;;;;;19.27;13.48;;;14.40;99.90;;;;;;5115863;27;20043;-76
2022/05/19 01:09:15;;;;;;;21.88;14.48;;;14.40;99.90;;;;;;5117473;27;20483;-76
2022/05/19 01:11:42;;;;;;;19.30;14.32;;;14.40;99.90;;;;;;5135063;27;20047;-76
2022/05/19 01:14:08;;;;;;;21.73;14.52;;;14.40;99.90;;;;;;5136013;27;20054;-76
2022/05/19 01:16:34;;;;;;;24.70;16.10;;;14.40;99.90;;;;;;5131327;27;20431;-76
2022/05/19 01:19:04;;;;;;;28.02;17.77;;;14.40;99.90;;;;;;5155164;27;20035;-76
2022/05/19 01:21:32;;;;;;;27.50;18.23;;;14.40;99.90;;;;;;5156643;27;20082;-75
2022/05/19 01:24:22;;;;;;;30.48;19.90;;;14.50;99.90;;;;;;5154023;27;20046;-75
2022/05/19 01:26:51;;;;;;;24.25;18.05;;;14.50;99.90;;;;;;5153980;27;20118;-76
2022/05/19 01:29:21;;;;;;;25.83;18.73;;;14.50;99.90;;;;;;5155325;27;20112;-76
2022/05/19 01:32:00;;;;;;;21.95;16.55;;;14.60;99.90;;;;;;5131410;27;20057;-76
2022/05/19 01:34:32;;;;;;;20.75;15.63;;;14.60;99.90;;;;;;5135490;27;20045;-76
2022/05/19 01:36:59;;;;;;;21.30;16.75;;;14.60;99.90;;;;;;5115670;27;20043;-76
2022/05/19 01:39:30;;;;;;;20.65;17.00;;;14.60;99.90;;;;;;5136573;27;20091;-76
2022/05/19 01:42:33;;;;;;;24.42;18.00;;;14.60;99.90;;;;;;5119250;27;20047;-76
2022/05/19 01:45:27;;;;;;;24.98;17.23;;;14.60;99.90;;;;;;5112801;27;20051;-76
2022/05/19 01:47:53;;;;;;;30.65;19.35;;;14.70;99.90;;;;;;5135312;27;20111;-76
2022/05/19 01:50:27;;;;;;;27.48;18.77;;;14.70;99.90;;;;;;5116244;27;20421;-76
2022/05/19 01:53:40;;;;;;;28.00;18.90;;;14.70;99.90;;;;;;5134332;27;20440;-76
2022/05/19 01:56:14;;;;;;;32.17;21.15;;;14.70;99.90;;;;;;5021176;28;20100;-76
2022/05/19 01:59:11;;;;;;;29.73;20.93;;;14.70;99.90;;;;;;5125985;27;20047;-76
2022/05/19 02:01:40;;;;;;;27.02;21.05;;;14.70;99.90;;;;;;5123662;27;20094;-76
2022/05/19 02:04:17;;;;;;;32.13;22.40;;;14.70;99.90;;;;;;5132442;27;20165;-76
2022/05/19 02:07:07;;;;;;;32.40;21.73;;;14.70;99.90;;;;;;5121533;27;20063;-75
2022/05/19 02:09:36;;;;;;;29.35;21.90;;;14.70;99.90;;;;;;5124377;27;20108;-76
2022/05/19 02:12:02;;;;;;;36.22;22.83;;;14.70;99.90;;;;;;5116713;27;20047;-75
2022/05/19 02:14:44;;;;;;;37.50;24.15;;;14.70;99.90;;;;;;5098068;27;20047;-75
2022/05/19 02:17:17;;;;;;;32.83;24.70;;;14.70;99.90;;;;;;5116542;27;20394;-75
2022/05/19 02:19:46;;;;;;;35.70;23.98;;;14.70;99.90;;;;;;5126832;27;20134;-76
2022/05/19 02:22:17;;;;;;;35.17;26.05;;;14.70;99.90;;;;;;5123424;27;20498;-75
2022/05/19 02:24:50;;;;;;;38.25;26.25;;;14.70;99.90;;;;;;5134776;27;20046;-76
2022/05/19 02:27:34;;;;;;;42.33;28.38;;;14.70;99.90;;;;;;5122868;27;20047;-76
2022/05/19 02:30:08;;;;;;;45.03;27.83;;;14.70;99.90;;;;;;5134515;27;20079;-75
2022/05/19 02:32:38;;;;;;;39.00;27.80;;;14.70;99.90;;;;;;5129191;27;20370;-76
2022/05/19 02:35:05;;;;;;;43.33;31.35;;;15.20;99.90;;;;;;5135655;27;20042;-76
2022/05/19 02:37:31;;;;;;;49.17;31.55;;;14.70;99.90;;;;;;5148413;27;20041;-76
2022/05/19 02:39:58;;;;;;;37.78;30.42;;;14.70;99.90;;;;;;5136941;27;20066;-75
2022/05/19 02:42:23;;;;;;;37.78;29.67;;;14.70;99.90;;;;;;5124181;28;20050;-75
2022/05/19 02:44:49;;;;;;;45.05;31.75;;;14.70;99.90;;;;;;5127509;28;20035;-75
2022/05/19 02:47:15;;;;;;;43.03;31.70;;;14.70;99.90;;;;;;5121499;28;20039;-75
2022/05/19 02:49:40;;;;;;;48.42;31.75;;;14.70;99.90;;;;;;5115095;28;20036;-75
2022/05/19 02:52:06;;;;;;;44.15;32.40;;;14.70;99.90;;;;;;5098534;28;20055;-75
2022/05/19 02:54:32;;;;;;;43.63;31.45;;;14.70;99.90;;;;;;5134108;27;20043;-76
2022/05/19 02:56:58;;;;;;;47.42;33.28;;;14.80;99.90;;;;;;5140832;27;20058;-76
2022/05/19 02:59:24;;;;;;;40.63;31.88;;;14.80;99.90;;;;;;5154765;27;20099;-76
2022/05/19 03:01:49;;;;;;;47.97;33.67;;;14.80;99.90;;;;;;5151715;27;20043;-75
2022/05/19 03:04:15;;;;;;;47.78;34.08;;;14.80;99.90;;;;;;5151742;27;20038;-76
2022/05/19 03:06:41;;;;;;;47.75;32.47;;;14.80;99.90;;;;;;5150037;27;20039;-75
2022/05/19 03:09:07;;;;;;;48.80;32.83;;;14.80;99.90;;;;;;5153855;27;20039;-76
2022/05/19 03:11:33;;;;;;;50.45;33.75;;;14.80;99.90;;;;;;5152108;27;20099;-76
2022/05/19 03:13:59;;;;;;;46.88;34.38;;;14.90;99.90;;;;;;5154800;27;20042;-75
2022/05/19 03:16:25;;;;;;;48.15;32.83;;;14.90;99.90;;;;;;5152645;27;20035;-75
2022/05/19 03:18:51;;;;;;;47.55;33.55;;;14.90;99.90;;;;;;5136256;27;20039;-75
2022/05/19 03:21:17;;;;;;;50.50;34.75;;;14.90;99.90;;;;;;5147773;27;20035;-75
2022/05/19 03:23:42;;;;;;;45.00;32.88;;;14.90;99.90;;;;;;5101488;27;20043;-75
2022/05/19 03:26:08;;;;;;;50.45;35.00;;;15.00;99.90;;;;;;5102802;27;20092;-75
2022/05/19 03:28:34;;;;;;;48.90;33.60;;;15.00;99.90;;;;;;5149565;27;20049;-75
2022/05/19 03:31:00;;;;;;;51.45;35.60;;;15.00;99.90;;;;;;5139558;27;20046;-75
2022/05/19 03:33:26;;;;;;;52.42;36.25;;;15.00;99.90;;;;;;5156720;27;20047;-75
2022/05/19 03:35:59;;;;;;;46.58;33.00;;;15.00;99.90;;;;;;5135068;27;20035;-75
2022/05/19 03:38:26;;;;;;;47.22;36.58;;;15.00;99.90;;;;;;5127710;27;20087;-75
2022/05/19 03:40:52;;;;;;;51.38;37.13;;;15.00;99.90;;;;;;5158512;27;20047;-75
2022/05/19 03:43:17;;;;;;;45.90;33.65;;;15.00;99.90;;;;;;5138370;27;20045;-76
2022/05/19 03:45:43;;;;;;;51.47;35.50;;;15.00;99.90;;;;;;5156965;27;20034;-76
2022/05/19 03:48:09;;;;;;;50.05;36.22;;;15.10;99.90;;;;;;5156834;27;20043;-76
2022/05/19 03:50:35;;;;;;;50.08;36.10;;;15.10;99.90;;;;;;5139897;27;20043;-76
2022/05/19 03:53:01;;;;;;;48.05;36.33;;;15.00;99.90;;;;;;5132710;27;20035;-76
2022/05/19 03:55:28;;;;;;;42.85;32.10;;;15.10;99.90;;;;;;5118978;27;20543;-76
2022/05/19 03:57:54;;;;;;;45.42;35.10;;;15.00;99.90;;;;;;5139787;27;20091;-76
2022/05/19 04:00:21;;;;;;;50.30;36.47;;;15.00;99.90;;;;;;5142153;27;20494;-76
2022/05/19 04:02:47;;;;;;;51.50;36.30;;;15.00;99.90;;;;;;5138377;27;20068;-76
2022/05/19 04:05:14;;;;;;;45.00;33.92;;;15.00;99.90;;;;;;5157945;27;20034;-76
2022/05/19 04:07:41;;;;;;;49.20;35.55;;;15.00;99.90;;;;;;5137749;27;20130;-76
2022/05/19 04:10:09;;;;;;;46.20;35.80;;;15.00;99.90;;;;;;5137729;27;20046;-76
2022/05/19 04:12:35;;;;;;;44.70;36.15;;;15.00;99.90;;;;;;5121189;27;20126;-76
2022/05/19 04:15:03;;;;;;;49.92;36.85;;;15.00;99.90;;;;;;5142669;27;20047;-76
2022/05/19 04:17:33;;;;;;;52.05;36.45;;;15.00;99.90;;;;;;5119051;27;20035;-76
2022/05/19 04:20:00;;;;;;;45.75;37.70;;;15.10;99.90;;;;;;5136730;27;20050;-76
2022/05/19 04:22:27;;;;;;;53.33;37.03;;;15.10;99.90;;;;;;5157758;27;20043;-76
2022/05/19 04:24:53;;;;;;;54.30;37.78;;;15.20;99.90;;;;;;5102764;27;20100;-76
2022/05/19 04:27:18;;;;;;;53.47;38.63;;;15.30;99.90;;;;;;5117503;27;20043;-76
2022/05/19 04:29:44;;;;;;;53.78;38.63;;;15.30;99.90;;;;;;5118773;27;20099;-76
2022/05/19 04:32:10;;;;;;;47.75;36.70;;;15.40;99.90;;;;;;5118658;27;20129;-76
2022/05/19 04:34:36;;;;;;;45.85;37.05;;;15.40;99.90;;;;;;5117867;27;20072;-76
2022/05/19 04:37:02;;;;;;;49.65;38.72;;;15.50;99.90;;;;;;5118222;27;20482;-76
2022/05/19 04:39:27;;;;;;;47.50;39.45;;;15.60;99.90;;;;;;5119171;27;20130;-76
2022/05/19 04:41:53;;;;;;;47.80;37.63;;;15.70;99.90;;;;;;5116711;27;20135;-76
2022/05/19 04:44:20;;;;;;;46.83;36.90;;;15.80;99.90;;;;;;5150620;27;20038;-76
2022/05/19 04:46:46;;;;;;;49.25;39.17;;;15.90;99.90;;;;;;5138997;27;20043;-76
2022/05/19 04:49:12;;;;;;;50.45;37.22;;;16.00;99.90;;;;;;5129620;27;20405;-76
2022/05/19 04:51:37;;;;;;;45.80;35.90;;;16.00;99.90;;;;;;5141056;27;20035;-77
2022/05/19 04:54:03;;;;;;;50.85;37.70;;;16.10;99.90;;;;;;5121617;27;20038;-76
2022/05/19 04:56:30;;;;;;;55.15;39.13;;;16.20;99.90;;;;;;5135932;27;20080;-76
2022/05/19 04:58:56;;;;;;;54.45;40.55;;;16.20;99.90;;;;;;5134698;27;20080;-76
2022/05/19 05:01:22;;;;;;;48.17;39.70;;;16.20;99.90;;;;;;5137762;27;20085;-76
2022/05/19 05:03:48;;;;;;;47.20;38.15;;;16.30;99.90;;;;;;5137704;27;20070;-76
2022/05/19 05:06:14;;;;;;;49.83;39.03;;;16.30;99.90;;;;;;5155449;27;20031;-76
2022/05/19 05:08:39;;;;;;;48.65;39.00;;;16.30;99.90;;;;;;5124463;27;20049;-76
2022/05/19 05:11:05;;;;;;;48.83;38.25;;;16.40;99.90;;;;;;5100717;27;20134;-76
2022/05/19 05:13:31;;;;;;;46.25;36.65;;;16.40;99.90;;;;;;5136367;27;20045;-76
2022/05/19 05:15:58;;;;;;;52.33;39.38;;;16.40;99.90;;;;;;5137275;27;20444;-76
2022/05/19 05:18:24;;;;;;;49.30;35.85;;;16.40;99.90;;;;;;5155265;27;20043;-76
2022/05/19 05:20:50;;;;;;;55.85;37.45;;;16.40;99.90;;;;;;5137951;27;20046;-76
2022/05/19 05:23:15;;;;;;;47.10;36.60;;;16.50;99.90;;;;;;5134100;27;20042;-77
2022/05/19 05:25:41;;;;;;;48.13;35.30;;;16.50;99.90;;;;;;5107883;27;20076;-78
2022/05/19 05:28:08;;;;;;;45.17;33.28;;;16.50;99.90;;;;;;5131589;27;20094;-77
2022/05/19 05:30:34;;;;;;;43.72;31.58;;;16.50;99.90;;;;;;5131370;27;20093;-78
2022/05/19 05:33:05;;;;;;;41.72;30.98;;;16.60;99.90;;;;;;5130645;27;20176;-78
2022/05/19 05:35:31;;;;;;;38.95;29.15;;;16.70;99.90;;;;;;5122076;27;20106;-77
2022/05/19 05:37:57;;;;;;;39.45;30.38;;;16.70;99.90;;;;;;5133813;27;20129;-77
2022/05/19 05:40:23;;;;;;;41.35;28.83;;;16.90;99.90;;;;;;5155095;27;20039;-78
2022/05/19 05:42:49;;;;;;;38.72;28.75;;;16.90;99.90;;;;;;5156200;27;20035;-77
2022/05/19 05:45:15;;;;;;;33.80;26.98;;;17.00;99.90;;;;;;5131104;27;20402;-77
2022/05/19 05:47:40;;;;;;;34.88;27.13;;;17.10;99.90;;;;;;5116732;27;20043;-78
2022/05/19 05:50:06;;;;;;;47.80;27.15;;;17.20;99.90;;;;;;5119944;27;20122;-77
2022/05/19 05:52:32;;;;;;;39.75;26.88;;;17.30;99.90;;;;;;5145016;27;20574;-77
2022/05/19 05:54:59;;;;;;;37.53;26.80;;;17.30;99.90;;;;;;5135544;27;20129;-78
2022/05/19 05:57:27;;;;;;;33.15;26.02;;;17.40;99.90;;;;;;5116681;27;20498;-79
2022/05/19 05:59:52;;;;;;;38.10;28.23;;;17.40;99.90;;;;;;5133486;27;20054;-79
2022/05/19 06:02:18;;;;;;;36.10;25.95;;;17.40;99.90;;;;;;5134884;27;20035;-79
2022/05/19 06:04:44;;;;;;;38.08;27.67;;;17.50;99.90;;;;;;5116372;27;20047;-80
2022/05/19 06:07:12;;;;;;;34.40;27.73;;;17.50;99.90;;;;;;5107489;27;20075;-79
2022/05/19 06:09:39;;;;;;;34.60;27.17;;;17.40;99.90;;;;;;5111440;27;20051;-77
2022/05/19 06:12:05;;;;;;;32.00;25.63;;;17.40;99.90;;;;;;5107994;27;20039;-78
2022/05/19 06:14:31;;;;;;;30.70;23.25;;;17.50;99.90;;;;;;5134869;27;20073;-77
2022/05/19 06:16:58;;;;;;;30.42;25.20;;;17.50;99.90;;;;;;5155009;27;20074;-76
2022/05/19 06:19:23;;;;;;;34.15;25.70;;;17.50;99.90;;;;;;5151096;27;20046;-77
2022/05/19 06:21:49;;;;;;;33.40;24.13;;;17.50;99.90;;;;;;5143120;27;20031;-76
2022/05/19 06:24:15;;;;;;;28.67;24.15;;;17.50;99.90;;;;;;5117801;27;20046;-75
2022/05/19 06:26:41;;;;;;;30.48;23.27;;;17.50;99.90;;;;;;5135710;27;20401;-76
2022/05/19 06:29:10;;;;;;;35.65;26.42;;;17.50;99.90;;;;;;5129399;27;20053;-75
2022/05/19 06:31:36;;;;;;;37.85;25.30;;;17.50;99.90;;;;;;5116205;27;20043;-75
2022/05/19 06:34:02;;;;;;;33.78;24.52;;;17.40;99.90;;;;;;5133295;27;20053;-75
2022/05/19 06:36:29;;;;;;;32.30;22.58;;;17.40;99.90;;;;;;5128389;27;20482;-75
2022/05/19 06:38:55;;;;;;;30.55;23.88;;;17.40;99.90;;;;;;5133178;27;20047;-76
2022/05/19 06:44:08;;;;;;;27.42;23.48;;;17.40;99.90;;;;;;5131362;27;20551;-75
2022/05/19 06:46:33;;;;;;;28.27;22.98;;;17.40;99.90;;;;;;5134162;28;20043;-76
2022/05/19 06:49:02;;;;;;;32.30;24.85;;;17.40;99.90;;;;;;5141925;27;20386;-77
2022/05/19 06:51:28;;;;;;;42.00;28.05;;;17.40;99.90;;;;;;5132792;28;20371;-78
2022/05/19 06:53:54;;;;;;;33.53;26.00;;;17.50;99.90;;;;;;5116111;28;20508;-78
2022/05/19 06:56:20;;;;;;;32.80;25.35;;;17.50;99.90;;;;;;5112822;28;20067;-77
2022/05/19 06:58:49;;;;;;;33.28;25.73;;;17.60;99.90;;;;;;5123193;27;20122;-77
2022/05/19 07:01:14;;;;;;;29.15;22.80;;;17.70;99.90;;;;;;5137582;27;20088;-76
2022/05/19 07:03:40;;;;;;;34.28;25.35;;;17.70;99.90;;;;;;5134369;27;20474;-76
2022/05/19 07:06:06;;;;;;;31.63;24.10;;;17.80;99.90;;;;;;5100855;27;20514;-76
2022/05/19 07:08:32;;;;;;;35.83;25.73;;;17.80;99.90;;;;;;5117807;27;20046;-76
2022/05/19 07:10:57;;;;;;;30.33;24.58;;;17.80;99.90;;;;;;5136777;27;20394;-76
2022/05/19 07:13:24;;;;;;;33.70;25.52;;;17.90;99.90;;;;;;5136547;27;20042;-76
2022/05/19 07:15:49;;;;;;;26.92;23.20;;;17.90;99.90;;;;;;5115727;28;20047;-75
2022/05/19 07:18:15;;;;;;;27.90;22.08;;;18.00;99.90;;;;;;5117156;27;20122;-76
2022/05/19 07:20:43;;;;;;;28.45;22.50;;;18.00;99.90;;;;;;5132087;27;20134;-76
2022/05/19 07:23:14;;;;;;;26.40;21.80;;;18.00;99.90;;;;;;5115432;28;20130;-76
2022/05/19 07:25:41;;;;;;;34.60;24.35;;;18.00;99.90;;;;;;5099364;28;20097;-76
2022/05/19 07:28:07;;;;;;;29.88;25.40;;;18.00;99.90;;;;;;5128184;27;20505;-76
2022/05/19 07:30:33;;;;;;;28.15;23.90;;;18.10;99.90;;;;;;5118694;27;20371;-75
2022/05/19 07:32:59;;;;;;;28.13;23.60;;;18.10;99.90;;;;;;5126363;27;20050;-75
2022/05/19 07:35:25;;;;;;;30.25;24.48;;;18.20;99.90;;;;;;5137466;27;20383;-76
2022/05/19 07:37:51;;;;;;;28.90;23.58;;;18.20;99.90;;;;;;5108606;28;20065;-75
2022/05/19 07:40:17;;;;;;;35.25;25.42;;;18.20;99.90;;;;;;5115801;27;20047;-75
2022/05/19 07:42:43;;;;;;;32.30;23.35;;;18.30;99.90;;;;;;5122251;27;20562;-76
2022/05/19 07:45:10;;;;;;;28.90;24.50;;;18.30;99.90;;;;;;5119329;27;20047;-75
2022/05/19 07:47:35;;;;;;;31.45;22.88;;;18.40;99.90;;;;;;5123980;27;20110;-75
2022/05/19 07:50:02;;;;;;;29.73;20.08;;;18.40;99.90;;;;;;5115896;28;20468;-75
2022/05/19 07:52:27;;;;;;;30.10;21.15;;;18.40;99.90;;;;;;5122022;27;20043;-75
2022/05/19 07:54:54;;;;;;;27.67;20.15;;;18.40;99.90;;;;;;5089837;28;20100;-75
2022/05/19 07:57:21;;;;;;;28.00;20.70;;;18.40;99.90;;;;;;5145766;27;20058;-75
2022/05/19 07:59:47;;;;;;;31.52;20.40;;;18.40;99.90;;;;;;5112880;28;20402;-75
2022/05/19 08:02:13;;;;;;;27.17;20.92;;;18.50;99.90;;;;;;5134062;27;20046;-75
2022/05/19 08:04:39;;;;;;;28.77;21.42;;;18.50;99.90;;;;;;5118093;28;20520;-75
2022/05/19 08:07:05;;;;;;;29.52;20.33;;;18.50;99.90;;;;;;5133737;27;20039;-76
2022/05/19 08:15:34;;;;;;;23.73;19.10;;;18.40;99.90;;;;;;5133638;27;20071;-75
2022/05/19 08:17:50;;;;;;;28.27;20.30;;;18.40;99.90;;;;;;5140529;27;20549;-76
2022/05/19 08:20:18;;;;;;;25.50;19.75;;;18.50;99.90;;;;;;5101224;28;20050;-75
2022/05/19 08:22:44;;;;;;;30.08;19.75;;;18.50;99.90;;;;;;5119565;28;20043;-76
2022/05/19 08:25:10;;;;;;;25.88;19.25;;;18.60;99.90;;;;;;5099764;28;20047;-76
2022/05/19 08:27:36;;;;;;;24.92;20.95;;;18.60;99.90;;;;;;5116334;28;20043;-75
2022/05/19 08:30:03;;;;;;;30.75;19.92;;;18.70;99.90;;;;;;5139912;27;20058;-75
2022/05/19 08:32:31;;;;;;;25.30;19.80;;;18.80;99.90;;;;;;5118939;28;20039;-76
2022/05/19 08:34:57;;;;;;;26.60;19.65;;;18.80;99.90;;;;;;5134801;27;20470;-76
2022/05/19 08:37:23;;;;;;;25.13;18.35;;;18.90;99.90;;;;;;5136745;27;20050;-75
2022/05/19 08:39:49;;;;;;;25.92;18.77;;;19.00;99.90;;;;;;5115843;27;20092;-76
2022/05/19 08:42:17;;;;;;;23.85;18.35;;;19.10;99.90;;;;;;5116049;28;20108;-76
2022/05/19 08:44:49;;;;;;;22.50;17.50;;;19.20;99.90;;;;;;5142600;27;20046;-76
2022/05/19 08:47:22;;;;;;;21.63;18.52;;;19.30;99.90;;;;;;5155129;27;20051;-76
2022/05/19 08:50:03;;;;;;;28.15;18.90;;;19.30;99.90;;;;;;5134028;27;20042;-76
2022/05/19 08:52:41;;;;;;;25.80;18.60;;;19.40;99.90;;;;;;5137622;27;20125;-76
2022/05/19 08:55:11;;;;;;;22.80;18.13;;;19.50;99.90;;;;;;5144727;27;20490;-76
2022/05/19 08:57:43;;;;;;;19.20;16.48;;;19.60;99.90;;;;;;5085897;27;1398151;-75
2022/05/19 09:00:26;;;;;;;25.45;18.50;;;19.70;99.90;;;;;;5124351;27;20051;-76
2022/05/19 09:03:16;;;;;;;22.42;17.80;;;19.80;99.90;;;;;;5117151;27;20436;-76
2022/05/19 09:06:06;;;;;;;23.85;18.02;;;19.80;99.90;;;;;;5117375;27;20071;-76
2022/05/19 09:08:40;;;;;;;20.85;16.08;;;19.90;99.90;;;;;;5125919;27;20114;-76
2022/05/19 09:11:14;;;;;;;21.63;16.55;;;20.00;99.90;;;;;;5138171;27;20511;-76
2022/05/19 09:13:53;;;;;;;22.43;15.63;;;20.10;99.90;;;;;;5119626;27;20054;-77
2022/05/19 09:16:26;;;;;;;20.30;15.95;;;20.10;99.90;;;;;;5126423;27;20042;-76
2022/05/19 09:19:02;;;;;;;20.00;17.13;;;20.10;99.90;;;;;;5134928;27;20058;-75
2022/05/19 09:21:28;;;;;;;19.67;15.80;;;20.20;99.90;;;;;;5135059;27;20500;-76
2022/05/19 09:23:54;;;;;;;26.83;16.52;;;20.20;99.90;;;;;;5134938;27;20043;-77
2022/05/19 09:26:55;;;;;;;19.25;15.48;;;20.30;99.90;;;;;;5135692;27;20114;-77
2022/05/19 09:29:32;;;;;;;22.45;15.10;;;20.40;99.90;;;;;;5124651;27;20043;-76
2022/05/19 09:32:45;;;;;;;20.50;16.30;;;20.40;99.90;;;;;;5136890;27;20122;-77
2022/05/19 09:35:23;;;;;;;22.30;15.50;;;20.50;99.90;;;;;;5115775;27;20081;-77
2022/05/19 09:38:04;;;;;;;18.95;15.27;;;20.40;99.90;;;;;;5126017;27;20039;-77
2022/05/19 09:40:34;;;;;;;17.05;14.98;;;20.40;99.90;;;;;;5146853;27;20046;-77
2022/05/19 09:43:13;;;;;;;17.83;15.45;;;20.40;99.90;;;;;;5132477;27;20078;-77
2022/05/19 09:45:58;;;;;;;21.55;15.68;;;20.40;99.90;;;;;;5136885;27;20042;-76
2022/05/19 09:48:33;;;;;;;17.38;14.48;;;20.40;99.90;;;;;;5123516;27;20047;-76
2022/05/19 09:51:11;;;;;;;15.65;14.05;;;20.40;99.90;;;;;;5116109;27;20077;-76
2022/05/19 09:53:40;;;;;;;16.65;14.32;;;20.50;99.90;;;;;;5130342;27;20046;-77
2022/05/19 09:56:12;;;;;;;17.70;14.27;;;20.50;99.90;;;;;;5155667;27;20126;-76
2022/05/19 09:58:44;;;;;;;17.88;14.05;;;20.50;99.90;;;;;;5135074;27;20055;-76
2022/05/19 10:01:25;;;;;;;20.55;14.00;;;20.60;99.90;;;;;;5153458;27;20042;-76
2022/05/19 10:03:58;;;;;;;17.83;12.73;;;20.80;99.90;;;;;;5119920;27;20062;-76
2022/05/19 10:06:36;;;;;;;18.27;12.88;;;20.90;99.90;;;;;;5135256;27;20435;-78
2022/05/19 10:09:13;;;;;;;20.35;13.23;;;21.00;99.90;;;;;;5119503;27;20391;-77
2022/05/19 10:11:51;;;;;;;21.67;12.52;;;21.10;99.90;;;;;;5134102;27;20035;-76
2022/05/19 10:14:20;;;;;;;17.90;12.05;;;21.20;99.90;;;;;;5136785;27;20122;-77
2022/05/19 10:17:09;;;;;;;18.80;12.15;;;21.30;99.90;;;;;;5154060;27;20058;-76
2022/05/19 10:20:00;;;;;;;15.13;12.07;;;21.40;99.90;;;;;;5118824;27;20042;-76
2022/05/19 10:22:39;;;;;;;17.55;12.55;;;21.40;99.90;;;;;;5127895;27;20371;-77
2022/05/19 10:25:18;;;;;;;11.27;9.85;;;21.40;99.90;;;;;;5134415;27;20074;-76
2022/05/19 10:31:07;;;;;;;12.65;9.82;;;21.40;99.90;;;;;;5116048;28;20050;-77
2022/05/19 10:34:10;;;;;;;14.90;11.00;;;21.40;99.90;;;;;;5153146;27;20046;-77
2022/05/19 10:36:44;;;;;;;12.98;9.15;;;21.60;99.90;;;;;;5154173;27;20382;-77
2022/05/19 10:39:51;;;;;;;13.30;8.63;;;21.80;99.90;;;;;;5126347;27;20046;-77
2022/05/19 10:42:56;;;;;;;11.65;8.60;;;22.00;99.90;;;;;;5151229;27;20043;-76
2022/05/19 10:45:25;;;;;;;12.63;7.70;;;22.20;99.90;;;;;;5049710;27;20063;-76
2022/05/19 10:48:02;;;;;;;11.02;6.65;;;22.30;99.90;;;;;;5109916;27;20462;-76
2022/05/19 10:50:35;;;;;;;15.43;7.80;;;22.40;99.90;;;;;;5155043;27;20500;-77
2022/05/19 10:53:42;;;;;;;9.40;6.90;;;22.50;99.90;;;;;;5136434;27;20047;-76
2022/05/19 10:56:18;;;;;;;9.95;7.63;;;22.60;99.90;;;;;;5098015;27;20050;-77
2022/05/19 10:59:15;;;;;;;10.05;7.68;;;22.70;99.90;;;;;;5154975;27;20051;-76
2022/05/19 11:01:40;;;;;;;12.25;6.93;;;22.70;99.90;;;;;;5153773;27;20439;-76
2022/05/19 11:04:52;;;;;;;10.75;6.15;;;22.70;99.90;;;;;;5136408;27;20034;-76
2022/05/19 11:07:41;;;;;;;7.30;5.38;;;22.70;99.90;;;;;;5135579;27;20493;-76
2022/05/19 11:10:27;;;;;;;18.10;7.10;;;22.80;99.90;;;;;;5121397;28;20047;-76
2022/05/19 11:13:04;;;;;;;14.43;6.50;;;22.80;99.90;;;;;;5115410;28;20399;-77
2022/05/19 11:15:33;;;;;;;9.40;5.95;;;22.90;99.90;;;;;;5114816;28;20479;-76
2022/05/19 11:18:12;;;;;;;6.45;4.90;;;22.90;99.90;;;;;;5115543;28;20533;-78
2022/05/19 11:21:06;;;;;;;5.32;4.82;;;23.00;99.90;;;;;;5115505;28;20042;-77
2022/05/19 11:23:48;;;;;;;8.57;5.63;;;23.00;99.90;;;;;;5135919;27;20103;-77
2022/05/19 11:26:23;;;;;;;36.05;5.97;;;23.10;99.90;;;;;;5136055;27;20508;-77
2022/05/19 11:29:12;;;;;;;8.52;4.80;;;23.20;99.90;;;;;;5153701;27;20039;-78
2022/05/19 11:32:03;;;;;;;8.13;5.30;;;23.30;99.90;;;;;;5120264;27;20047;-77
2022/05/19 11:34:43;;;;;;;5.68;4.85;;;23.40;99.90;;;;;;5135996;27;20051;-77
2022/05/19 11:37:41;;;;;;;8.30;5.13;;;23.50;99.90;;;;;;5153531;27;20050;-77
2022/05/19 11:40:21;;;;;;;5.40;4.18;;;23.80;99.90;;;;;;5087312;28;20059;-77
2022/05/19 11:43:10;;;;;;;8.73;4.20;;;23.90;99.90;;;;;;5134948;27;20050;-77
2022/05/19 11:46:01;;;;;;;4.80;4.00;;;23.90;99.90;;;;;;5119253;27;20493;-77
2022/05/19 11:55:18;;;;;;;9.38;3.75;;;23.80;99.90;;;;;;5141931;27;20549;-77
2022/05/19 11:57:55;;;;;;;3.70;3.05;;;23.60;99.90;;;;;;5026234;28;20432;-77
2022/05/19 12:00:28;;;;;;;5.70;3.80;;;23.40;99.90;;;;;;5053786;28;20049;-77
2022/05/19 12:03:32;;;;;;;6.75;4.63;;;23.30;99.90;;;;;;5098260;27;20378;-77
2022/05/19 12:06:09;;;;;;;6.95;4.88;;;23.20;99.90;;;;;;5107567;27;20475;-77
2022/05/19 12:08:48;;;;;;;7.93;4.07;;;23.00;99.90;;;;;;5137733;27;20517;-77
2022/05/19 12:11:50;;;;;;;6.47;3.85;;;22.90;99.90;;;;;;5141511;27;20035;-78
2022/05/19 12:14:31;;;;;;;6.07;3.63;;;22.80;99.90;;;;;;5154857;27;20164;-77
2022/05/19 12:17:00;;;;;;;4.78;3.55;;;22.70;99.90;;;;;;5118320;27;20126;-77
2022/05/19 12:19:39;;;;;;;10.27;3.85;;;22.50;99.90;;;;;;5120534;27;20091;-77
2022/05/19 12:22:24;;;;;;;7.13;4.25;;;22.50;99.90;;;;;;5118111;27;20486;-78
2022/05/19 12:24:54;;;;;;;7.40;4.35;;;22.40;99.90;;;;;;5119907;27;20039;-78
2022/05/19 12:27:36;;;;;;;9.82;4.25;;;22.20;99.90;;;;;;5152758;27;20037;-77
2022/05/19 12:33:02;;;;;;;6.17;4.20;;;22.10;99.90;;;;;;5155107;27;20043;-78
2022/05/19 12:35:29;;;;;;;5.18;3.70;;;22.00;99.90;;;;;;5144308;27;20486;-76
2022/05/19 12:38:03;;;;;;;6.28;3.58;;;21.90;99.90;;;;;;5146756;27;20050;-77
2022/05/19 12:40:31;;;;;;;8.68;4.18;;;21.60;99.90;;;;;;5144840;27;20043;-77
2022/05/19 12:43:21;;;;;;;10.40;4.38;;;21.20;99.90;;;;;;5118241;27;20062;-78
2022/05/19 12:45:54;;;;;;;6.50;3.72;;;20.80;99.90;;;;;;5117326;27;20440;-78
2022/05/19 12:48:25;;;;;;;5.68;3.47;;;20.40;99.90;;;;;;5136847;27;20051;-77
2022/05/19 12:51:08;;;;;;;8.25;3.10;;;20.00;99.90;;;;;;5110476;27;20069;-78
2022/05/19 12:53:52;;;;;;;6.20;2.92;;;19.70;99.90;;;;;;5117645;27;20043;-78
2022/05/19 12:56:48;;;;;;;4.72;2.33;;;19.40;99.90;;;;;;5118536;27;20042;-78
2022/05/19 12:59:40;;;;;;;4.32;2.78;;;19.10;99.90;;;;;;5122055;27;20050;-78
2022/05/19 13:02:30;;;;;;;4.78;2.97;;;18.90;99.90;;;;;;5143971;27;20122;-78
2022/05/19 13:05:01;;;;;;;8.90;3.40;;;18.70;99.90;;;;;;5133171;27;20518;-77
2022/05/19 13:07:34;;;;;;;5.18;3.70;;;18.60;99.90;;;;;;5132376;27;20567;-79
2022/05/19 13:10:05;;;;;;;7.47;4.10;;;18.50;99.90;;;;;;5148038;27;20505;-78
2022/05/19 13:13:04;;;;;;;8.10;4.38;;;18.40;99.90;;;;;;5137617;27;20135;-79
2022/05/19 13:15:33;;;;;;;7.80;4.90;;;18.40;99.90;;;;;;5116838;27;20089;-80
2022/05/19 13:18:06;;;;;;;7.80;5.03;;;18.20;99.90;;;;;;5135628;27;20476;-78